Terminal Aerodrome Forecast
Issued by NWS

Home | Current Version | Previous Version | Text Only | Print | Product List | Glossary On
Versions: 1 2 3 4 5 6 7 8 9 10 11
000
FTPA31 PHFO 111136
TAFHTO
TAF
PHTO 111136Z 1112/1212 23005KT P6SM FEW025 FEW045
     FM112100 12007KT P6SM FEW025 SCT050
     FM120500 21004KT P6SM FEW025 FEW045=

USA.gov is the U.S. government's official web portal to all federal, state and local government web resources and services.